createdAt,value
2018-07-31T00:01:52.117Z,6.50
2018-07-31T00:04:20.129Z,6.20
2018-07-31T00:06:47.055Z,6.13
2018-07-31T00:09:13.960Z,6.20
2018-07-31T00:11:40.915Z,6.00
2018-07-31T00:14:07.838Z,5.90
2018-07-31T00:16:34.742Z,5.47
2018-07-31T00:19:01.693Z,5.73
2018-07-31T00:21:28.666Z,6.77
2018-07-31T00:23:55.587Z,5.63
2018-07-31T00:26:22.480Z,5.80
2018-07-31T00:28:49.426Z,6.00
2018-07-31T00:31:16.347Z,5.83
2018-07-31T00:33:43.276Z,6.93
2018-07-31T00:36:10.207Z,6.00
2018-07-31T00:38:37.124Z,6.23
2018-07-31T00:41:04.054Z,5.40
2018-07-31T00:43:31.962Z,6.23
2018-07-31T00:45:58.868Z,5.57
2018-07-31T00:48:25.844Z,6.43
2018-07-31T00:50:52.772Z,5.43
2018-07-31T00:53:19.690Z,6.33
2018-07-31T00:55:46.595Z,5.50
2018-07-31T00:58:13.523Z,5.80
2018-07-31T01:00:40.445Z,6.13
2018-07-31T01:03:07.393Z,5.93
2018-07-31T01:05:35.274Z,5.63
2018-07-31T01:08:02.296Z,7.30
2018-07-31T01:10:29.249Z,7.03
2018-07-31T01:12:56.168Z,6.53
2018-07-31T01:15:23.110Z,6.33
2018-07-31T01:17:50.009Z,6.63
2018-07-31T01:20:16.918Z,6.77
2018-07-31T01:22:43.880Z,7.17
2018-07-31T01:25:10.798Z,5.90
2018-07-31T01:27:37.749Z,6.42
2018-07-31T01:30:04.862Z,6.40
2018-07-31T01:32:31.814Z,6.67
2018-07-31T01:34:58.748Z,6.63
2018-07-31T01:37:25.681Z,5.73
2018-07-31T01:39:52.670Z,6.13
2018-07-31T01:42:19.658Z,6.47
2018-07-31T01:44:46.573Z,6.70
2018-07-31T01:47:13.531Z,7.70
2018-07-31T01:49:40.484Z,6.50
2018-07-31T01:52:07.740Z,6.20
2018-07-31T01:54:34.680Z,5.00
2018-07-31T01:57:01.592Z,6.10
2018-07-31T01:59:28.498Z,5.93
2018-07-31T02:01:55.409Z,6.00
2018-07-31T02:04:22.338Z,6.37
2018-07-31T02:06:49.261Z,5.30
2018-07-31T02:09:16.180Z,5.90
2018-07-31T02:11:43.094Z,5.77
2018-07-31T02:14:10.000Z,6.90
2018-07-31T02:16:36.924Z,6.87
2018-07-31T02:19:03.858Z,6.67
2018-07-31T02:21:30.801Z,6.57
2018-07-31T02:23:57.723Z,6.20
2018-07-31T02:26:24.618Z,5.93
2018-07-31T02:28:51.542Z,5.90
2018-07-31T02:31:18.449Z,5.50
2018-07-31T02:33:45.386Z,5.70
2018-07-31T02:36:12.300Z,6.10
2018-07-31T02:38:39.226Z,5.77
2018-07-31T02:41:06.248Z,6.20
2018-07-31T02:43:33.196Z,6.47
2018-07-31T02:46:00.158Z,6.03
2018-07-31T02:48:27.084Z,6.10
2018-07-31T02:50:54.011Z,5.97
2018-07-31T02:53:20.985Z,6.70
2018-07-31T02:55:47.933Z,5.57
2018-07-31T02:58:14.862Z,6.30
2018-07-31T03:00:41.768Z,5.50
2018-07-31T03:03:08.686Z,5.90
2018-07-31T03:05:35.618Z,6.60
2018-07-31T03:08:02.600Z,5.77
2018-07-31T03:10:29.493Z,6.50
2018-07-31T03:12:56.426Z,6.60
2018-07-31T03:15:23.336Z,6.50
2018-07-31T03:17:50.285Z,5.67
2018-07-31T03:20:17.235Z,6.20
2018-07-31T03:22:44.112Z,6.53
2018-07-31T03:25:11.034Z,6.83
2018-07-31T03:27:37.973Z,6.00
2018-07-31T03:30:04.972Z,6.23
2018-07-31T03:32:31.916Z,6.20
2018-07-31T03:34:58.847Z,5.97
2018-07-31T03:37:25.750Z,6.47
2018-07-31T03:39:52.682Z,6.80
2018-07-31T03:42:19.635Z,6.57
2018-07-31T03:44:46.676Z,6.50
2018-07-31T03:47:13.603Z,6.53
2018-07-31T03:49:42.444Z,6.30
2018-07-31T03:52:09.385Z,6.63
2018-07-31T03:54:36.362Z,6.40
2018-07-31T03:57:03.352Z,7.65
2018-07-31T03:59:31.466Z,6.70
2018-07-31T04:01:58.578Z,7.13
2018-07-31T04:04:28.740Z,6.17
2018-07-31T04:06:55.646Z,6.07
2018-07-31T04:09:22.585Z,6.13
2018-07-31T04:11:49.500Z,6.40
2018-07-31T04:14:16.450Z,6.23
2018-07-31T04:16:43.341Z,5.90
2018-07-31T04:19:10.284Z,6.27
2018-07-31T04:21:37.172Z,6.57
2018-07-31T04:24:04.060Z,6.67
2018-07-31T04:26:30.935Z,6.20
2018-07-31T04:28:57.801Z,6.67
2018-07-31T04:31:24.680Z,6.27
2018-07-31T04:33:51.605Z,5.73
2018-07-31T04:36:18.656Z,5.97
2018-07-31T04:38:45.464Z,5.78
2018-07-31T04:41:12.409Z,5.73
2018-07-31T04:43:39.257Z,4.90
2018-07-31T04:46:06.228Z,5.17
2018-07-31T04:48:33.116Z,4.77
2018-07-31T04:50:59.992Z,5.03
2018-07-31T04:53:26.934Z,4.63
2018-07-31T04:55:53.839Z,5.43
2018-07-31T04:58:20.759Z,5.37
2018-07-31T05:00:47.637Z,6.20
2018-07-31T05:03:14.520Z,5.40
2018-07-31T05:05:41.413Z,5.10
2018-07-31T05:08:08.363Z,5.00
2018-07-31T05:10:35.293Z,5.72
2018-07-31T05:13:02.421Z,5.70
2018-07-31T05:15:29.286Z,5.20
2018-07-31T05:17:56.180Z,5.77
2018-07-31T05:20:23.056Z,6.57
2018-07-31T05:22:49.978Z,5.80
2018-07-31T05:25:16.972Z,5.90
2018-07-31T05:27:43.869Z,5.67
2018-07-31T05:30:10.747Z,5.13
2018-07-31T05:32:37.872Z,5.60
2018-07-31T05:35:05.068Z,5.80
2018-07-31T05:37:31.948Z,6.23
2018-07-31T05:39:58.834Z,6.17
2018-07-31T05:42:25.712Z,6.20
2018-07-31T05:44:52.616Z,6.10
2018-07-31T05:47:19.505Z,5.90
2018-07-31T05:49:46.424Z,6.40
2018-07-31T05:52:13.304Z,6.28
2018-07-31T05:54:40.209Z,5.37
2018-07-31T05:57:07.096Z,5.60
2018-07-31T05:59:33.972Z,6.00
2018-07-31T06:02:00.891Z,5.70
2018-07-31T06:04:27.773Z,6.40
2018-07-31T06:06:54.650Z,5.60
2018-07-31T06:09:21.593Z,6.27
2018-07-31T06:11:48.488Z,5.97
2018-07-31T06:14:15.444Z,5.23
2018-07-31T06:16:42.324Z,6.10
2018-07-31T06:19:09.380Z,5.50
2018-07-31T06:21:36.630Z,5.93
2018-07-31T06:24:03.528Z,5.50
2018-07-31T06:26:30.413Z,5.97
2018-07-31T06:28:57.320Z,6.93
2018-07-31T06:31:24.242Z,5.40
2018-07-31T06:33:51.137Z,5.53
2018-07-31T06:36:18.088Z,5.13
2018-07-31T06:38:44.981Z,5.07
2018-07-31T06:41:11.884Z,4.90
2018-07-31T06:43:38.760Z,5.40
2018-07-31T06:46:05.663Z,5.47
2018-07-31T06:48:32.568Z,5.47
2018-07-31T06:50:59.468Z,5.93
2018-07-31T06:53:26.364Z,5.40
2018-07-31T06:55:53.271Z,5.53
2018-07-31T06:58:20.177Z,5.27
2018-07-31T07:00:47.077Z,6.15
2018-07-31T07:03:13.969Z,5.33
2018-07-31T07:05:40.850Z,5.57
2018-07-31T07:08:10.753Z,5.43
2018-07-31T07:10:37.748Z,5.60
2018-07-31T07:13:04.664Z,5.70
2018-07-31T07:15:31.585Z,5.90
2018-07-31T07:17:58.482Z,5.23
2018-07-31T07:20:25.424Z,4.73
2018-07-31T07:22:52.331Z,5.10
2018-07-31T07:25:19.216Z,5.27
2018-07-31T07:27:46.168Z,6.00
2018-07-31T07:30:13.009Z,5.40
2018-07-31T07:32:39.888Z,4.87
2018-07-31T07:35:07.842Z,5.30
2018-07-31T07:37:34.724Z,5.00
2018-07-31T07:40:01.647Z,6.37
2018-07-31T07:42:28.537Z,5.60
2018-07-31T07:44:55.410Z,6.10
2018-07-31T07:47:22.300Z,5.10
2018-07-31T07:49:49.201Z,5.37
2018-07-31T07:52:16.092Z,5.60
2018-07-31T07:54:43.077Z,5.13
2018-07-31T07:57:09.993Z,5.00
2018-07-31T07:59:37.320Z,5.30
2018-07-31T08:02:04.230Z,6.10
2018-07-31T08:04:31.972Z,5.10
2018-07-31T08:06:58.895Z,5.60
2018-07-31T08:09:25.788Z,5.27
2018-07-31T08:11:52.700Z,5.13
2018-07-31T08:14:19.621Z,5.62
2018-07-31T08:16:46.525Z,6.10
2018-07-31T08:19:13.423Z,5.55
2018-07-31T08:21:40.323Z,5.30
2018-07-31T08:24:07.204Z,5.53
2018-07-31T08:26:34.280Z,5.37
2018-07-31T08:29:01.167Z,5.80
2018-07-31T08:31:28.057Z,5.90
2018-07-31T08:33:54.952Z,4.60
2018-07-31T08:36:21.852Z,5.50
2018-07-31T08:38:48.774Z,5.27
2018-07-31T08:41:15.688Z,5.40
2018-07-31T08:43:42.600Z,6.17
2018-07-31T08:46:09.564Z,5.33
2018-07-31T08:48:40.199Z,5.53
2018-07-31T08:51:08.133Z,6.00
2018-07-31T08:53:36.089Z,6.20
2018-07-31T08:56:03.096Z,5.80
2018-07-31T08:58:42.548Z,5.77
2018-07-31T09:01:09.483Z,5.90
2018-07-31T09:03:36.444Z,5.40
2018-07-31T09:06:03.823Z,6.33
2018-07-31T09:08:31.568Z,5.50
2018-07-31T09:10:58.344Z,5.97
2018-07-31T09:13:33.129Z,5.70
2018-07-31T09:16:00.010Z,5.37
2018-07-31T09:18:26.914Z,5.63
2018-07-31T09:20:53.977Z,6.20
2018-07-31T09:23:20.925Z,5.20
2018-07-31T09:25:48.540Z,5.10
2018-07-31T09:28:16.857Z,5.57
2018-07-31T09:30:49.775Z,5.10
2018-07-31T09:33:16.620Z,4.93
2018-07-31T09:35:44.543Z,5.13
2018-07-31T09:38:11.631Z,4.90
2018-07-31T09:40:39.193Z,4.47
2018-07-31T09:43:06.025Z,4.10
2018-07-31T09:45:32.916Z,5.07
2018-07-31T09:47:59.879Z,5.28
2018-07-31T09:50:26.879Z,4.80
2018-07-31T09:52:53.897Z,4.90
2018-07-31T09:55:20.788Z,5.33
2018-07-31T09:57:47.689Z,4.40
2018-07-31T10:00:17.924Z,4.70
2018-07-31T10:02:44.980Z,4.50
2018-07-31T10:05:11.968Z,4.10
2018-07-31T10:07:38.876Z,4.15
2018-07-31T10:10:05.770Z,4.23
2018-07-31T10:12:32.686Z,4.07
2018-07-31T10:14:59.569Z,3.97
2018-07-31T10:17:26.493Z,3.70
2018-07-31T10:19:53.428Z,4.00
2018-07-31T10:22:20.341Z,4.00
2018-07-31T10:24:47.244Z,3.90
2018-07-31T10:27:14.145Z,4.17
2018-07-31T10:29:41.088Z,4.23
2018-07-31T10:32:08.017Z,4.90
2018-07-31T10:34:34.924Z,3.53
2018-07-31T10:37:01.821Z,4.00
2018-07-31T10:39:28.751Z,4.67
2018-07-31T10:41:55.681Z,3.90
2018-07-31T10:44:22.631Z,4.10
2018-07-31T10:46:49.520Z,4.13
2018-07-31T10:49:16.429Z,4.20
2018-07-31T10:51:44.114Z,3.97
2018-07-31T10:54:11.485Z,3.80
2018-07-31T10:56:39.535Z,4.30
2018-07-31T10:59:07.336Z,4.20
2018-07-31T11:01:34.290Z,4.40
2018-07-31T11:04:01.344Z,3.97
2018-07-31T11:06:28.209Z,4.00
2018-07-31T11:08:55.126Z,3.30
2018-07-31T11:11:22.135Z,4.30
2018-07-31T11:13:49.056Z,3.70
2018-07-31T11:16:16.033Z,3.80
2018-07-31T11:18:43.604Z,3.90
2018-07-31T11:21:10.609Z,3.37
2018-07-31T11:23:37.536Z,4.00
2018-07-31T11:26:04.674Z,4.25
2018-07-31T11:28:31.631Z,3.43
2018-07-31T11:30:58.648Z,4.17
2018-07-31T11:33:26.661Z,4.30
2018-07-31T11:35:53.640Z,3.90
2018-07-31T11:38:21.215Z,3.93
2018-07-31T11:40:48.716Z,4.00
2018-07-31T11:43:15.634Z,4.20
2018-07-31T11:45:42.661Z,4.40
2018-07-31T11:48:09.550Z,3.93
2018-07-31T11:50:36.597Z,4.37
2018-07-31T11:53:03.525Z,3.63
2018-07-31T11:55:30.523Z,4.30
2018-07-31T11:57:57.440Z,4.53
2018-07-31T12:00:25.549Z,4.20
2018-07-31T12:02:52.592Z,3.90
2018-07-31T12:05:19.609Z,3.50
2018-07-31T12:07:46.570Z,3.37
2018-07-31T12:10:13.546Z,4.07
2018-07-31T12:12:40.592Z,3.97
2018-07-31T12:15:07.551Z,3.67
2018-07-31T12:17:35.521Z,4.20
2018-07-31T12:20:02.579Z,4.10
2018-07-31T12:22:29.579Z,4.08
2018-07-31T12:24:56.517Z,3.60
2018-07-31T12:27:23.528Z,4.37
2018-07-31T12:29:50.541Z,4.10
2018-07-31T12:32:17.509Z,4.30
2018-07-31T12:34:44.464Z,4.10
2018-07-31T12:37:11.501Z,4.20
2018-07-31T12:39:38.504Z,4.70
2018-07-31T12:42:05.390Z,4.00
2018-07-31T12:44:32.327Z,4.17
2018-07-31T12:46:59.341Z,3.90
2018-07-31T12:49:26.249Z,4.30
2018-07-31T12:51:53.217Z,3.87
2018-07-31T12:54:20.137Z,4.33
2018-07-31T12:56:47.076Z,5.00
2018-07-31T12:59:13.977Z,4.20
2018-07-31T13:01:40.864Z,3.83
2018-07-31T13:04:08.849Z,4.17
2018-07-31T13:06:35.854Z,4.10
2018-07-31T13:09:02.998Z,4.43
2018-07-31T13:11:29.890Z,4.13
2018-07-31T13:13:56.784Z,3.73
2018-07-31T13:16:23.688Z,4.07
2018-07-31T13:18:52.606Z,3.77
2018-07-31T13:21:19.497Z,3.57
2018-07-31T13:23:46.415Z,3.97
2018-07-31T13:26:13.329Z,4.03
2018-07-31T13:28:40.232Z,3.43
2018-07-31T13:31:07.139Z,4.10
2018-07-31T13:33:34.036Z,3.90
2018-07-31T13:36:01.101Z,3.80
2018-07-31T13:38:28.021Z,4.13
2018-07-31T13:40:54.909Z,3.87
2018-07-31T13:43:21.838Z,4.30
2018-07-31T13:45:48.696Z,4.00
2018-07-31T13:48:15.607Z,3.90
2018-07-31T13:50:43.554Z,3.60
2018-07-31T13:53:10.460Z,3.70
2018-07-31T13:55:37.361Z,3.43
2018-07-31T13:58:04.301Z,4.00
2018-07-31T14:00:31.197Z,3.90
2018-07-31T14:02:58.100Z,3.70
2018-07-31T14:05:25.011Z,3.50
2018-07-31T14:07:51.912Z,3.80
2018-07-31T14:10:18.802Z,3.63
2018-07-31T14:12:45.734Z,3.60
2018-07-31T14:15:12.596Z,3.60
2018-07-31T14:17:39.527Z,3.72
2018-07-31T14:20:06.394Z,3.47
2018-07-31T14:22:33.329Z,3.67
2018-07-31T14:25:00.237Z,3.60
2018-07-31T14:27:27.135Z,3.60
2018-07-31T14:29:54.028Z,3.55
2018-07-31T14:32:20.921Z,3.87
2018-07-31T14:34:47.845Z,3.43
2018-07-31T14:37:14.766Z,3.50
2018-07-31T14:39:41.665Z,3.20
2018-07-31T14:42:08.589Z,4.00
2018-07-31T14:44:35.476Z,3.07
2018-07-31T14:47:02.381Z,3.70
2018-07-31T14:49:29.260Z,3.87
2018-07-31T14:51:56.172Z,3.60
2018-07-31T14:54:23.077Z,3.50
2018-07-31T14:56:49.984Z,3.53
2018-07-31T14:59:16.887Z,3.20
2018-07-31T15:01:43.798Z,4.00
2018-07-31T15:04:10.691Z,3.50
2018-07-31T15:06:37.609Z,3.47
2018-07-31T15:09:07.251Z,3.57
2018-07-31T15:11:34.164Z,3.67
2018-07-31T15:14:01.076Z,3.00
2018-07-31T15:16:27.993Z,3.40
2018-07-31T15:18:54.902Z,3.30
2018-07-31T15:21:21.881Z,3.60
2018-07-31T15:23:48.788Z,3.73
2018-07-31T15:26:15.669Z,3.77
2018-07-31T15:28:42.584Z,3.47
2018-07-31T15:31:09.476Z,3.40
2018-07-31T15:33:36.387Z,3.30
2018-07-31T15:36:03.304Z,3.67
2018-07-31T15:38:30.199Z,2.93
2018-07-31T15:40:57.100Z,3.07
2018-07-31T15:43:27.038Z,2.60
2018-07-31T15:45:54.920Z,2.67
2018-07-31T15:48:21.816Z,2.70
2018-07-31T15:50:48.716Z,3.13
2018-07-31T15:53:15.654Z,3.20
2018-07-31T15:55:42.580Z,3.03
2018-07-31T15:58:09.546Z,2.57
2018-07-31T16:00:36.404Z,3.07
2018-07-31T16:03:03.388Z,2.17
2018-07-31T16:05:30.279Z,2.90
2018-07-31T16:07:57.166Z,2.67
2018-07-31T16:10:24.184Z,2.67
2018-07-31T16:12:51.095Z,3.13
2018-07-31T16:15:18.011Z,2.70
2018-07-31T16:17:45.106Z,2.50
2018-07-31T16:20:12.016Z,2.70
2018-07-31T16:22:38.887Z,2.70
2018-07-31T16:25:06.045Z,2.90
2018-07-31T16:27:32.944Z,2.00
2018-07-31T16:29:59.944Z,2.47
2018-07-31T16:32:26.885Z,2.20
2018-07-31T16:34:53.791Z,2.67
2018-07-31T16:37:20.717Z,2.40
2018-07-31T16:39:47.622Z,2.50
2018-07-31T16:42:14.508Z,2.30
2018-07-31T16:44:41.404Z,2.50
2018-07-31T16:47:08.346Z,2.70
2018-07-31T16:49:38.288Z,1.73
2018-07-31T16:52:05.244Z,2.40
2018-07-31T16:54:32.171Z,2.20
2018-07-31T16:56:59.084Z,2.30
2018-07-31T16:59:26.016Z,2.23
2018-07-31T17:01:54.005Z,2.00
2018-07-31T17:04:24.979Z,2.20
2018-07-31T17:06:51.879Z,2.00
2018-07-31T17:09:19.931Z,2.00
2018-07-31T17:11:46.941Z,1.83
2018-07-31T17:14:13.988Z,1.60
2018-07-31T17:16:40.947Z,1.87
2018-07-31T17:19:07.896Z,1.53
2018-07-31T17:21:38.607Z,1.87
2018-07-31T17:24:08.441Z,2.00
2018-07-31T17:26:36.502Z,1.87
2018-07-31T17:29:03.459Z,1.90
2018-07-31T17:31:30.461Z,1.77
2018-07-31T17:33:57.445Z,1.97
2018-07-31T17:36:24.761Z,1.73
2018-07-31T17:38:51.780Z,1.70
2018-07-31T17:41:18.743Z,1.80
2018-07-31T17:43:46.427Z,1.70
2018-07-31T17:46:14.428Z,1.57
2018-07-31T17:48:44.424Z,1.70
2018-07-31T17:51:12.477Z,1.80
2018-07-31T17:53:40.428Z,2.15
2018-07-31T17:56:08.980Z,2.00
2018-07-31T17:58:35.949Z,1.70
2018-07-31T18:01:03.939Z,1.53
2018-07-31T18:03:31.561Z,2.00
2018-07-31T18:05:59.508Z,2.20
2018-07-31T18:08:26.492Z,2.40
2018-07-31T18:10:53.466Z,2.40
2018-07-31T18:13:21.468Z,2.23
2018-07-31T18:15:48.719Z,2.30
2018-07-31T18:18:15.755Z,2.10
2018-07-31T18:20:42.784Z,2.97
2018-07-31T18:23:14.356Z,2.52
2018-07-31T18:25:44.355Z,2.45
2018-07-31T18:28:12.375Z,2.67
2018-07-31T18:30:40.391Z,2.50
2018-07-31T18:33:09.000Z,2.20
2018-07-31T18:35:46.466Z,2.40
2018-07-31T18:38:21.483Z,2.35
2018-07-31T18:40:49.440Z,2.20
2018-07-31T18:43:21.289Z,2.10
2018-07-31T18:45:48.400Z,2.13
2018-07-31T18:48:17.509Z,2.60
2018-07-31T18:50:44.381Z,2.00
2018-07-31T18:53:11.306Z,2.43
2018-07-31T18:55:38.188Z,2.42
2018-07-31T18:58:06.256Z,2.60
2018-07-31T19:00:33.216Z,2.47
2018-07-31T19:03:03.293Z,2.50
2018-07-31T19:05:30.317Z,2.20
2018-07-31T19:07:57.232Z,2.40
2018-07-31T19:10:26.025Z,2.60
2018-07-31T19:12:52.972Z,2.37
2018-07-31T19:15:20.212Z,2.07
2018-07-31T19:17:47.148Z,2.20
2018-07-31T19:20:14.075Z,2.63
2018-07-31T19:22:41.003Z,2.23
2018-07-31T19:25:07.942Z,2.00
2018-07-31T19:27:34.952Z,2.20
2018-07-31T19:30:01.902Z,1.90
2018-07-31T19:32:28.884Z,1.60
2018-07-31T19:34:55.827Z,2.10
2018-07-31T19:37:22.748Z,2.30
2018-07-31T19:39:49.720Z,2.10
2018-07-31T19:42:16.670Z,2.40
2018-07-31T19:44:43.543Z,2.03
2018-07-31T19:47:10.526Z,2.37
2018-07-31T19:49:37.450Z,2.40
2018-07-31T19:52:04.801Z,1.90
2018-07-31T19:54:31.704Z,2.30
2018-07-31T19:56:58.620Z,2.27
2018-07-31T19:59:25.525Z,2.10
2018-07-31T20:01:52.440Z,2.67
2018-07-31T20:04:19.500Z,2.30
2018-07-31T20:06:46.405Z,2.40
2018-07-31T20:09:19.138Z,2.25
2018-07-31T20:11:46.045Z,2.10
2018-07-31T20:14:13.004Z,2.20
2018-07-31T20:16:39.941Z,2.62
2018-07-31T20:19:06.829Z,2.27
2018-07-31T20:21:33.841Z,2.50
2018-07-31T20:24:00.792Z,2.53
2018-07-31T20:26:27.812Z,2.27
2018-07-31T20:28:54.817Z,2.03
2018-07-31T20:31:21.732Z,2.10
2018-07-31T20:33:48.648Z,2.00
2018-07-31T20:36:15.556Z,2.20
2018-07-31T20:38:42.466Z,2.50
2018-07-31T20:41:09.376Z,2.50
2018-07-31T20:43:36.289Z,2.00
2018-07-31T20:46:03.352Z,2.30
2018-07-31T20:48:30.264Z,2.80
2018-07-31T20:50:57.154Z,3.03
2018-07-31T20:53:24.068Z,2.33
2018-07-31T20:55:51.052Z,2.00
2018-07-31T20:58:17.995Z,2.13
2018-07-31T21:00:44.884Z,2.30
2018-07-31T21:03:11.775Z,2.53
2018-07-31T21:05:38.659Z,2.70
2018-07-31T21:08:05.562Z,2.80
2018-07-31T21:10:32.451Z,2.07
2018-07-31T21:12:59.332Z,2.27
2018-07-31T21:15:26.230Z,2.30
2018-07-31T21:17:53.144Z,2.57
2018-07-31T21:20:20.040Z,2.70
2018-07-31T21:22:46.937Z,2.20
2018-07-31T21:25:13.898Z,2.20
2018-07-31T21:27:40.804Z,2.50
2018-07-31T21:30:07.925Z,2.60
2018-07-31T21:32:34.864Z,2.97
2018-07-31T21:35:01.773Z,2.63
2018-07-31T21:37:28.656Z,2.37
2018-07-31T21:39:55.548Z,2.20
2018-07-31T21:42:22.437Z,2.20
2018-07-31T21:44:50.328Z,2.43
2018-07-31T21:47:17.209Z,2.17
2018-07-31T21:49:44.131Z,2.33
2018-07-31T21:52:11.068Z,2.30
2018-07-31T21:54:38.244Z,2.37
2018-07-31T21:57:05.136Z,2.53
2018-07-31T21:59:32.068Z,1.97
2018-07-31T22:01:59.050Z,2.50
2018-07-31T22:04:26.036Z,2.63
2018-07-31T22:06:52.916Z,2.53
2018-07-31T22:09:25.642Z,2.73
2018-07-31T22:11:53.496Z,2.90
2018-07-31T22:14:20.385Z,2.13
2018-07-31T22:16:47.300Z,2.50
2018-07-31T22:19:14.187Z,2.50
2018-07-31T22:21:41.067Z,2.50
2018-07-31T22:24:07.952Z,2.60
2018-07-31T22:26:34.832Z,2.53
2018-07-31T22:29:01.720Z,2.83
2018-07-31T22:31:28.637Z,2.50
2018-07-31T22:33:55.516Z,2.30
2018-07-31T22:36:22.424Z,2.50
2018-07-31T22:38:49.328Z,2.30
2018-07-31T22:41:16.255Z,2.53
2018-07-31T22:43:43.200Z,1.83
2018-07-31T22:46:10.046Z,2.20
2018-07-31T22:48:36.933Z,2.40
2018-07-31T22:51:03.863Z,2.40
2018-07-31T22:53:30.816Z,2.43
2018-07-31T22:55:57.697Z,2.03
2018-07-31T22:58:24.604Z,2.10
2018-07-31T23:00:51.480Z,2.17
2018-07-31T23:03:18.372Z,2.20
2018-07-31T23:05:45.271Z,2.10
2018-07-31T23:08:13.028Z,1.90
2018-07-31T23:10:39.912Z,2.30
2018-07-31T23:13:06.800Z,1.87
2018-07-31T23:15:33.672Z,2.00
2018-07-31T23:18:00.572Z,1.95
2018-07-31T23:20:27.465Z,2.20
2018-07-31T23:22:54.404Z,1.93
2018-07-31T23:25:21.301Z,1.93
2018-07-31T23:27:48.213Z,2.00
2018-07-31T23:30:15.099Z,2.00
2018-07-31T23:32:42.120Z,1.90
2018-07-31T23:35:09.039Z,2.10
2018-07-31T23:37:36.937Z,2.30
2018-07-31T23:40:04.694Z,2.43
2018-07-31T23:42:32.018Z,2.47
2018-07-31T23:44:59.006Z,2.10
2018-07-31T23:47:26.930Z,2.30
2018-07-31T23:49:53.812Z,1.90
2018-07-31T23:52:20.738Z,2.20
2018-07-31T23:54:47.755Z,2.10
2018-07-31T23:57:14.814Z,2.10
2018-07-31T23:59:41.700Z,2.20
